sensor_id;sensor_type;location;lat;lon;timestamp;P1;durP1;ratioP1;P2;durP2;ratioP2
15504;SDS011;7854;52.184;5.942;2023-08-06T00:04:16;17;;;16;;
15504;SDS011;7854;52.184;5.942;2023-08-06T00:04:16;16;;;14;;
15504;SDS011;7854;52.184;5.942;2023-08-06T00:05:37;22;;;17;;
15504;SDS011;7854;52.184;5.942;2023-08-06T00:07:51;19;;;17;;
15504;SDS011;7854;52.184;5.942;2023-08-06T00:10:06;20;;;18;;
15504;SDS011;7854;52.184;5.942;2023-08-06T00:12:20;16;;;15;;
15504;SDS011;7854;52.184;5.942;2023-08-06T00:14:34;20;;;18;;
15504;SDS011;7854;52.184;5.942;2023-08-06T00:16:49;17;;;15;;
15504;SDS011;7854;52.184;5.942;2023-08-06T00:19:03;21;;;18;;
15504;SDS011;7854;52.184;5.942;2023-08-06T00:21:17;20;;;18;;
15504;SDS011;7854;52.184;5.942;2023-08-06T00:23:31;15;;;14;;
15504;SDS011;7854;52.184;5.942;2023-08-06T00:25:45;20;;;18;;
15504;SDS011;7854;52.184;5.942;2023-08-06T00:28:00;19;;;17;;
15504;SDS011;7854;52.184;5.942;2023-08-06T00:30:14;21;;;18;;
15504;SDS011;7854;52.184;5.942;2023-08-06T00:32:29;21;;;19;;
15504;SDS011;7854;52.184;5.942;2023-08-06T00:34:43;16;;;15;;
15504;SDS011;7854;52.184;5.942;2023-08-06T00:36:58;17;;;16;;
15504;SDS011;7854;52.184;5.942;2023-08-06T00:39:12;15;;;14;;
15504;SDS011;7854;52.184;5.942;2023-08-06T00:41:27;18;;;16;;
15504;SDS011;7854;52.184;5.942;2023-08-06T00:43:43;18;;;16;;
15504;SDS011;7854;52.184;5.942;2023-08-06T00:45:55;19;;;17;;
15504;SDS011;7854;52.184;5.942;2023-08-06T00:48:10;17;;;16;;
15504;SDS011;7854;52.184;5.942;2023-08-06T00:50:24;15;;;14;;
15504;SDS011;7854;52.184;5.942;2023-08-06T00:52:39;19;;;17;;
15504;SDS011;7854;52.184;5.942;2023-08-06T00:57:08;24;;;21;;
15504;SDS011;7854;52.184;5.942;2023-08-06T00:59:22;21;;;19;;
15504;SDS011;7854;52.184;5.942;2023-08-06T01:01:36;20;;;18;;
15504;SDS011;7854;52.184;5.942;2023-08-06T01:03:51;18;;;17;;
15504;SDS011;7854;52.184;5.942;2023-08-06T01:06:05;20;;;18;;
15504;SDS011;7854;52.184;5.942;2023-08-06T01:08:23;19;;;17;;
15504;SDS011;7854;52.184;5.942;2023-08-06T01:10:40;20;;;18;;
15504;SDS011;7854;52.184;5.942;2023-08-06T01:12:51;20;;;18;;
15504;SDS011;7854;52.184;5.942;2023-08-06T01:15:04;18;;;17;;
15504;SDS011;7854;52.184;5.942;2023-08-06T01:19:32;20;;;18;;
15504;SDS011;7854;52.184;5.942;2023-08-06T01:21:47;22;;;18;;
15504;SDS011;7854;52.184;5.942;2023-08-06T01:24:01;31;;;21;;
15504;SDS011;7854;52.184;5.942;2023-08-06T01:26:18;21;;;19;;
15504;SDS011;7854;52.184;5.942;2023-08-06T01:28:33;18;;;16;;
15504;SDS011;7854;52.184;5.942;2023-08-06T01:30:44;22;;;19;;
15504;SDS011;7854;52.184;5.942;2023-08-06T01:33:00;19;;;18;;
15504;SDS011;7854;52.184;5.942;2023-08-06T01:35:15;21;;;19;;
15504;SDS011;7854;52.184;5.942;2023-08-06T01:37:28;19;;;17;;
15504;SDS011;7854;52.184;5.942;2023-08-06T01:39:43;23;;;20;;
15504;SDS011;7854;52.184;5.942;2023-08-06T01:41:57;25;;;22;;
15504;SDS011;7854;52.184;5.942;2023-08-06T01:44:11;22;;;19;;
15504;SDS011;7854;52.184;5.942;2023-08-06T01:46:26;19;;;17;;
15504;SDS011;7854;52.184;5.942;2023-08-06T01:48:40;23;;;18;;
15504;SDS011;7854;52.184;5.942;2023-08-06T01:50:54;24;;;22;;
15504;SDS011;7854;52.184;5.942;2023-08-06T01:53:09;24;;;22;;
15504;SDS011;7854;52.184;5.942;2023-08-06T01:55:23;25;;;22;;
15504;SDS011;7854;52.184;5.942;2023-08-06T01:57:38;22;;;20;;
15504;SDS011;7854;52.184;5.942;2023-08-06T01:59:52;24;;;22;;
15504;SDS011;7854;52.184;5.942;2023-08-06T02:02:06;20;;;18;;
15504;SDS011;7854;52.184;5.942;2023-08-06T02:04:21;23;;;19;;
15504;SDS011;7854;52.184;5.942;2023-08-06T02:06:36;25;;;22;;
15504;SDS011;7854;52.184;5.942;2023-08-06T02:08:50;21;;;19;;
15504;SDS011;7854;52.184;5.942;2023-08-06T02:11:05;25;;;20;;
15504;SDS011;7854;52.184;5.942;2023-08-06T02:13:19;23;;;20;;
15504;SDS011;7854;52.184;5.942;2023-08-06T02:15:33;25;;;22;;
15504;SDS011;7854;52.184;5.942;2023-08-06T02:17:48;26;;;21;;
15504;SDS011;7854;52.184;5.942;2023-08-06T02:20:02;19;;;17;;
15504;SDS011;7854;52.184;5.942;2023-08-06T02:22:16;23;;;21;;
15504;SDS011;7854;52.184;5.942;2023-08-06T02:24:30;22;;;20;;
15504;SDS011;7854;52.184;5.942;2023-08-06T02:26:44;26;;;23;;
15504;SDS011;7854;52.184;5.942;2023-08-06T02:28:59;21;;;19;;
15504;SDS011;7854;52.184;5.942;2023-08-06T02:31:13;21;;;19;;
15504;SDS011;7854;52.184;5.942;2023-08-06T02:33:28;22;;;20;;
15504;SDS011;7854;52.184;5.942;2023-08-06T02:35:42;32;;;24;;
15504;SDS011;7854;52.184;5.942;2023-08-06T02:37:57;21;;;19;;
15504;SDS011;7854;52.184;5.942;2023-08-06T02:40:11;22;;;20;;
15504;SDS011;7854;52.184;5.942;2023-08-06T02:42:26;21;;;19;;
15504;SDS011;7854;52.184;5.942;2023-08-06T02:44:40;35;;;25;;
15504;SDS011;7854;52.184;5.942;2023-08-06T02:46:55;23;;;21;;
15504;SDS011;7854;52.184;5.942;2023-08-06T02:49:09;42;;;28;;
15504;SDS011;7854;52.184;5.942;2023-08-06T02:51:23;22;;;20;;
15504;SDS011;7854;52.184;5.942;2023-08-06T02:53:38;23;;;21;;
15504;SDS011;7854;52.184;5.942;2023-08-06T02:55:52;25;;;22;;
15504;SDS011;7854;52.184;5.942;2023-08-06T02:58:07;23;;;21;;
15504;SDS011;7854;52.184;5.942;2023-08-06T03:00:21;26;;;22;;
15504;SDS011;7854;52.184;5.942;2023-08-06T03:02:35;33;;;26;;
15504;SDS011;7854;52.184;5.942;2023-08-06T03:04:50;29;;;22;;
15504;SDS011;7854;52.184;5.942;2023-08-06T03:07:05;21;;;20;;
15504;SDS011;7854;52.184;5.942;2023-08-06T03:09:19;29;;;26;;
15504;SDS011;7854;52.184;5.942;2023-08-06T03:11:34;22;;;20;;
15504;SDS011;7854;52.184;5.942;2023-08-06T03:13:48;25;;;21;;
15504;SDS011;7854;52.184;5.942;2023-08-06T03:16:03;25;;;21;;
15504;SDS011;7854;52.184;5.942;2023-08-06T03:18:17;26;;;23;;
15504;SDS011;7854;52.184;5.942;2023-08-06T03:20:32;26;;;23;;
15504;SDS011;7854;52.184;5.942;2023-08-06T03:22:46;27;;;24;;
15504;SDS011;7854;52.184;5.942;2023-08-06T03:25:00;26;;;20;;
15504;SDS011;7854;52.184;5.942;2023-08-06T03:27:15;22;;;20;;
15504;SDS011;7854;52.184;5.942;2023-08-06T03:29:29;27;;;23;;
15504;SDS011;7854;52.184;5.942;2023-08-06T03:31:43;27;;;24;;
15504;SDS011;7854;52.184;5.942;2023-08-06T03:33:58;23;;;21;;
15504;SDS011;7854;52.184;5.942;2023-08-06T03:36:12;36;;;27;;
15504;SDS011;7854;52.184;5.942;2023-08-06T03:38:27;28;;;23;;
15504;SDS011;7854;52.184;5.942;2023-08-06T03:40:41;29;;;26;;
15504;SDS011;7854;52.184;5.942;2023-08-06T03:42:56;40;;;30;;
15504;SDS011;7854;52.184;5.942;2023-08-06T03:45:09;26;;;23;;
15504;SDS011;7854;52.184;5.942;2023-08-06T03:47:24;22;;;20;;
15504;SDS011;7854;52.184;5.942;2023-08-06T03:49:38;33;;;26;;
15504;SDS011;7854;52.184;5.942;2023-08-06T03:51:52;26;;;23;;
15504;SDS011;7854;52.184;5.942;2023-08-06T03:54:07;33;;;25;;
15504;SDS011;7854;52.184;5.942;2023-08-06T03:56:21;47;;;31;;
15504;SDS011;7854;52.184;5.942;2023-08-06T03:58:36;24;;;22;;
15504;SDS011;7854;52.184;5.942;2023-08-06T04:00:57;26;;;23;;
15504;SDS011;7854;52.184;5.942;2023-08-06T04:03:05;29;;;24;;
15504;SDS011;7854;52.184;5.942;2023-08-06T04:05:19;27;;;24;;
15504;SDS011;7854;52.184;5.942;2023-08-06T04:07:34;28;;;25;;
15504;SDS011;7854;52.184;5.942;2023-08-06T04:09:52;42;;;30;;
15504;SDS011;7854;52.184;5.942;2023-08-06T04:12:03;43;;;30;;
15504;SDS011;7854;52.184;5.942;2023-08-06T04:14:17;23;;;21;;
15504;SDS011;7854;52.184;5.942;2023-08-06T04:16:31;22;;;20;;
15504;SDS011;7854;52.184;5.942;2023-08-06T04:18:46;27;;;23;;
15504;SDS011;7854;52.184;5.942;2023-08-06T04:21:01;24;;;22;;
15504;SDS011;7854;52.184;5.942;2023-08-06T04:23:15;34;;;27;;
15504;SDS011;7854;52.184;5.942;2023-08-06T04:25:29;31;;;26;;
15504;SDS011;7854;52.184;5.942;2023-08-06T04:27:44;27;;;24;;
15504;SDS011;7854;52.184;5.942;2023-08-06T04:29:58;23;;;20;;
15504;SDS011;7854;52.184;5.942;2023-08-06T04:32:13;32;;;23;;
15504;SDS011;7854;52.184;5.942;2023-08-06T04:34:27;45;;;26;;
15504;SDS011;7854;52.184;5.942;2023-08-06T04:36:42;29;;;25;;
15504;SDS011;7854;52.184;5.942;2023-08-06T04:38:56;52;;;34;;
15504;SDS011;7854;52.184;5.942;2023-08-06T04:41:10;32;;;27;;
15504;SDS011;7854;52.184;5.942;2023-08-06T04:43:25;30;;;26;;
15504;SDS011;7854;52.184;5.942;2023-08-06T04:45:45;42;;;31;;
15504;SDS011;7854;52.184;5.942;2023-08-06T04:47:54;54;;;31;;
15504;SDS011;7854;52.184;5.942;2023-08-06T04:50:08;44;;;31;;
15504;SDS011;7854;52.184;5.942;2023-08-06T04:52:22;34;;;29;;
15504;SDS011;7854;52.184;5.942;2023-08-06T04:56:52;38;;;29;;
15504;SDS011;7854;52.184;5.942;2023-08-06T04:59:06;27;;;24;;
15504;SDS011;7854;52.184;5.942;2023-08-06T05:01:21;32;;;28;;
15504;SDS011;7854;52.184;5.942;2023-08-06T05:03:35;28;;;24;;
15504;SDS011;7854;52.184;5.942;2023-08-06T05:05:49;39;;;30;;
15504;SDS011;7854;52.184;5.942;2023-08-06T05:08:04;25;;;22;;
15504;SDS011;7854;52.184;5.942;2023-08-06T05:10:18;25;;;21;;
15504;SDS011;7854;52.184;5.942;2023-08-06T05:12:33;35;;;28;;
15504;SDS011;7854;52.184;5.942;2023-08-06T05:14:47;29;;;25;;
15504;SDS011;7854;52.184;5.942;2023-08-06T05:17:02;36;;;26;;
15504;SDS011;7854;52.184;5.942;2023-08-06T05:19:16;26;;;23;;
15504;SDS011;7854;52.184;5.942;2023-08-06T05:21:30;32;;;25;;
15504;SDS011;7854;52.184;5.942;2023-08-06T05:23:44;28;;;23;;
15504;SDS011;7854;52.184;5.942;2023-08-06T05:25:59;39;;;29;;
15504;SDS011;7854;52.184;5.942;2023-08-06T05:28:14;36;;;29;;
15504;SDS011;7854;52.184;5.942;2023-08-06T05:30:28;34;;;29;;
15504;SDS011;7854;52.184;5.942;2023-08-06T05:32:43;32;;;25;;
15504;SDS011;7854;52.184;5.942;2023-08-06T05:34:57;31;;;26;;
15504;SDS011;7854;52.184;5.942;2023-08-06T05:37:11;22;;;19;;
15504;SDS011;7854;52.184;5.942;2023-08-06T05:39:26;34;;;27;;
15504;SDS011;7854;52.184;5.942;2023-08-06T05:41:40;29;;;25;;
15504;SDS011;7854;52.184;5.942;2023-08-06T05:43:55;31;;;25;;
15504;SDS011;7854;52.184;5.942;2023-08-06T05:46:09;27;;;24;;
15504;SDS011;7854;52.184;5.942;2023-08-06T05:48:24;27;;;22;;
15504;SDS011;7854;52.184;5.942;2023-08-06T05:50:38;28;;;24;;
15504;SDS011;7854;52.184;5.942;2023-08-06T05:52:51;29;;;24;;
15504;SDS011;7854;52.184;5.942;2023-08-06T05:55:06;29;;;25;;
15504;SDS011;7854;52.184;5.942;2023-08-06T05:57:21;29;;;25;;
15504;SDS011;7854;52.184;5.942;2023-08-06T05:59:35;27;;;24;;
15504;SDS011;7854;52.184;5.942;2023-08-06T06:01:49;30;;;27;;
15504;SDS011;7854;52.184;5.942;2023-08-06T06:04:04;26;;;23;;
15504;SDS011;7854;52.184;5.942;2023-08-06T06:06:18;25;;;22;;
15504;SDS011;7854;52.184;5.942;2023-08-06T06:08:33;22;;;19;;
15504;SDS011;7854;52.184;5.942;2023-08-06T06:10:47;22;;;20;;
15504;SDS011;7854;52.184;5.942;2023-08-06T06:13:02;27;;;23;;
15504;SDS011;7854;52.184;5.942;2023-08-06T06:15:16;25;;;22;;
15504;SDS011;7854;52.184;5.942;2023-08-06T06:17:31;23;;;21;;
15504;SDS011;7854;52.184;5.942;2023-08-06T06:19:45;23;;;20;;
15504;SDS011;7854;52.184;5.942;2023-08-06T06:21:59;34;;;28;;
15504;SDS011;7854;52.184;5.942;2023-08-06T06:24:14;25;;;22;;
15504;SDS011;7854;52.184;5.942;2023-08-06T06:26:28;23;;;21;;
15504;SDS011;7854;52.184;5.942;2023-08-06T06:28:42;23;;;21;;
15504;SDS011;7854;52.184;5.942;2023-08-06T06:30:59;25;;;22;;
15504;SDS011;7854;52.184;5.942;2023-08-06T06:33:12;30;;;26;;
15504;SDS011;7854;52.184;5.942;2023-08-06T06:35:26;22;;;20;;
15504;SDS011;7854;52.184;5.942;2023-08-06T06:37:40;25;;;23;;
15504;SDS011;7854;52.184;5.942;2023-08-06T06:39:54;21;;;19;;
15504;SDS011;7854;52.184;5.942;2023-08-06T06:42:08;21;;;19;;
15504;SDS011;7854;52.184;5.942;2023-08-06T06:44:23;23;;;20;;
15504;SDS011;7854;52.184;5.942;2023-08-06T06:46:37;24;;;20;;
15504;SDS011;7854;52.184;5.942;2023-08-06T06:48:52;24;;;22;;
15504;SDS011;7854;52.184;5.942;2023-08-06T06:51:06;24;;;21;;
15504;SDS011;7854;52.184;5.942;2023-08-06T06:53:21;19;;;18;;
15504;SDS011;7854;52.184;5.942;2023-08-06T06:55:35;22;;;20;;
15504;SDS011;7854;52.184;5.942;2023-08-06T06:57:50;22;;;20;;
15504;SDS011;7854;52.184;5.942;2023-08-06T07:00:04;21;;;20;;
15504;SDS011;7854;52.184;5.942;2023-08-06T07:02:18;19;;;18;;
15504;SDS011;7854;52.184;5.942;2023-08-06T07:04:33;20;;;18;;
15504;SDS011;7854;52.184;5.942;2023-08-06T07:09:02;19;;;17;;
15504;SDS011;7854;52.184;5.942;2023-08-06T07:11:16;19;;;17;;
15504;SDS011;7854;52.184;5.942;2023-08-06T07:13:31;20;;;18;;
15504;SDS011;7854;52.184;5.942;2023-08-06T07:15:45;17;;;16;;
15504;SDS011;7854;52.184;5.942;2023-08-06T07:18:00;19;;;17;;
15504;SDS011;7854;52.184;5.942;2023-08-06T07:20:14;16;;;15;;
15504;SDS011;7854;52.184;5.942;2023-08-06T07:22:28;19;;;18;;
15504;SDS011;7854;52.184;5.942;2023-08-06T07:24:44;18;;;15;;
15504;SDS011;7854;52.184;5.942;2023-08-06T07:29:12;15;;;14;;
15504;SDS011;7854;52.184;5.942;2023-08-06T07:31:26;16;;;15;;
15504;SDS011;7854;52.184;5.942;2023-08-06T07:33:41;15;;;13;;
15504;SDS011;7854;52.184;5.942;2023-08-06T07:35:55;16;;;14;;
15504;SDS011;7854;52.184;5.942;2023-08-06T07:38:09;13;;;12;;
15504;SDS011;7854;52.184;5.942;2023-08-06T07:40:24;14;;;13;;
15504;SDS011;7854;52.184;5.942;2023-08-06T07:42:38;14;;;13;;
15504;SDS011;7854;52.184;5.942;2023-08-06T07:44:53;15;;;14;;
15504;SDS011;7854;52.184;5.942;2023-08-06T07:47:07;11;;;11;;
15504;SDS011;7854;52.184;5.942;2023-08-06T07:49:22;11;;;10;;
15504;SDS011;7854;52.184;5.942;2023-08-06T07:51:36;12;;;11;;
15504;SDS011;7854;52.184;5.942;2023-08-06T07:53:51;12;;;11;;
15504;SDS011;7854;52.184;5.942;2023-08-06T07:56:05;10;;;10;;
15504;SDS011;7854;52.184;5.942;2023-08-06T07:58:19;10;;;10;;
15504;SDS011;7854;52.184;5.942;2023-08-06T08:00:34;10;;;9;;
15504;SDS011;7854;52.184;5.942;2023-08-06T08:02:48;10;;;9;;
15504;SDS011;7854;52.184;5.942;2023-08-06T08:05:03;9;;;8;;
15504;SDS011;7854;52.184;5.942;2023-08-06T08:07:18;7;;;6;;
15504;SDS011;7854;52.184;5.942;2023-08-06T08:09:32;7;;;7;;
15504;SDS011;7854;52.184;5.942;2023-08-06T08:11:46;7;;;6;;
15504;SDS011;7854;52.184;5.942;2023-08-06T08:14:00;8;;;7;;
15504;SDS011;7854;52.184;5.942;2023-08-06T08:16:15;5;;;5;;
15504;SDS011;7854;52.184;5.942;2023-08-06T08:18:29;6;;;6;;
15504;SDS011;7854;52.184;5.942;2023-08-06T08:20:44;6;;;5;;
15504;SDS011;7854;52.184;5.942;2023-08-06T08:22:58;5;;;5;;
15504;SDS011;7854;52.184;5.942;2023-08-06T08:25:13;5;;;5;;
15504;SDS011;7854;52.184;5.942;2023-08-06T08:29:42;4;;;4;;
15504;SDS011;7854;52.184;5.942;2023-08-06T08:31:56;4;;;4;;
15504;SDS011;7854;52.184;5.942;2023-08-06T08:36:25;6;;;5;;
15504;SDS011;7854;52.184;5.942;2023-08-06T08:38:40;6;;;6;;
15504;SDS011;7854;52.184;5.942;2023-08-06T08:40:54;6;;;5;;
15504;SDS011;7854;52.184;5.942;2023-08-06T08:43:08;8;;;7;;
15504;SDS011;7854;52.184;5.942;2023-08-06T08:45:23;7;;;7;;
15504;SDS011;7854;52.184;5.942;2023-08-06T08:47:38;7;;;6;;
15504;SDS011;7854;52.184;5.942;2023-08-06T08:49:52;7;;;7;;
15504;SDS011;7854;52.184;5.942;2023-08-06T08:52:06;7;;;7;;
15504;SDS011;7854;52.184;5.942;2023-08-06T08:54:21;7;;;6;;
15504;SDS011;7854;52.184;5.942;2023-08-06T08:56:35;6;;;6;;
15504;SDS011;7854;52.184;5.942;2023-08-06T09:01:04;7;;;7;;
15504;SDS011;7854;52.184;5.942;2023-08-06T09:03:18;6;;;6;;
15504;SDS011;7854;52.184;5.942;2023-08-06T09:05:38;7;;;7;;
15504;SDS011;7854;52.184;5.942;2023-08-06T09:08:00;7;;;7;;
15504;SDS011;7854;52.184;5.942;2023-08-06T09:10:19;8;;;7;;
15504;SDS011;7854;52.184;5.942;2023-08-06T09:12:40;7;;;6;;
15504;SDS011;7854;52.184;5.942;2023-08-06T09:14:59;6;;;6;;
15504;SDS011;7854;52.184;5.942;2023-08-06T09:17:13;6;;;6;;
15504;SDS011;7854;52.184;5.942;2023-08-06T09:19:29;7;;;7;;
15504;SDS011;7854;52.184;5.942;2023-08-06T09:21:43;7;;;7;;
15504;SDS011;7854;52.184;5.942;2023-08-06T09:23:58;9;;;8;;
15504;SDS011;7854;52.184;5.942;2023-08-06T09:26:12;8;;;8;;
15504;SDS011;7854;52.184;5.942;2023-08-06T09:28:34;9;;;9;;
15504;SDS011;7854;52.184;5.942;2023-08-06T09:30:41;17;;;14;;
15504;SDS011;7854;52.184;5.942;2023-08-06T09:32:55;12;;;11;;
15504;SDS011;7854;52.184;5.942;2023-08-06T09:35:10;13;;;12;;
15504;SDS011;7854;52.184;5.942;2023-08-06T09:37:24;13;;;12;;
15504;SDS011;7854;52.184;5.942;2023-08-06T09:39:39;13;;;12;;
15504;SDS011;7854;52.184;5.942;2023-08-06T09:41:55;11;;;10;;
15504;SDS011;7854;52.184;5.942;2023-08-06T09:44:14;11;;;11;;
15504;SDS011;7854;52.184;5.942;2023-08-06T09:46:22;13;;;13;;
15504;SDS011;7854;52.184;5.942;2023-08-06T09:48:36;13;;;12;;
15504;SDS011;7854;52.184;5.942;2023-08-06T09:50:49;15;;;14;;
15504;SDS011;7854;52.184;5.942;2023-08-06T09:53:05;15;;;13;;
15504;SDS011;7854;52.184;5.942;2023-08-06T09:55:18;15;;;13;;
15504;SDS011;7854;52.184;5.942;2023-08-06T09:57:33;13;;;13;;
15504;SDS011;7854;52.184;5.942;2023-08-06T09:59:47;13;;;12;;
15504;SDS011;7854;52.184;5.942;2023-08-06T10:02:02;14;;;13;;
15504;SDS011;7854;52.184;5.942;2023-08-06T10:04:16;11;;;11;;
15504;SDS011;7854;52.184;5.942;2023-08-06T10:06:31;11;;;11;;
15504;SDS011;7854;52.184;5.942;2023-08-06T10:08:45;12;;;12;;
15504;SDS011;7854;52.184;5.942;2023-08-06T10:10:59;11;;;10;;
15504;SDS011;7854;52.184;5.942;2023-08-06T10:13:14;11;;;11;;
15504;SDS011;7854;52.184;5.942;2023-08-06T10:15:29;10;;;9;;
15504;SDS011;7854;52.184;5.942;2023-08-06T10:17:43;11;;;10;;
15504;SDS011;7854;52.184;5.942;2023-08-06T10:19:58;10;;;9;;
15504;SDS011;7854;52.184;5.942;2023-08-06T10:22:13;11;;;10;;
15504;SDS011;7854;52.184;5.942;2023-08-06T10:24:26;10;;;9;;
15504;SDS011;7854;52.184;5.942;2023-08-06T10:26:41;8;;;8;;
15504;SDS011;7854;52.184;5.942;2023-08-06T10:28:56;9;;;8;;
15504;SDS011;7854;52.184;5.942;2023-08-06T10:31:10;8;;;7;;
15504;SDS011;7854;52.184;5.942;2023-08-06T10:33:25;6;;;6;;
15504;SDS011;7854;52.184;5.942;2023-08-06T10:35:40;6;;;6;;
15504;SDS011;7854;52.184;5.942;2023-08-06T10:37:53;7;;;6;;
15504;SDS011;7854;52.184;5.942;2023-08-06T10:40:07;6;;;5;;
15504;SDS011;7854;52.184;5.942;2023-08-06T10:42:21;6;;;5;;
15504;SDS011;7854;52.184;5.942;2023-08-06T10:44:35;5;;;5;;
15504;SDS011;7854;52.184;5.942;2023-08-06T10:46:50;5;;;4;;
15504;SDS011;7854;52.184;5.942;2023-08-06T10:51:18;5;;;4;;
15504;SDS011;7854;52.184;5.942;2023-08-06T10:53:34;4;;;3;;
15504;SDS011;7854;52.184;5.942;2023-08-06T10:55:47;4;;;4;;
15504;SDS011;7854;52.184;5.942;2023-08-06T10:58:02;3;;;3;;
15504;SDS011;7854;52.184;5.942;2023-08-06T11:00:16;3;;;3;;
15504;SDS011;7854;52.184;5.942;2023-08-06T11:02:33;3;;;3;;
15504;SDS011;7854;52.184;5.942;2023-08-06T11:04:45;5;;;2;;
15504;SDS011;7854;52.184;5.942;2023-08-06T11:06:59;3;;;3;;
15504;SDS011;7854;52.184;5.942;2023-08-06T11:09:14;4;;;4;;
15504;SDS011;7854;52.184;5.942;2023-08-06T11:11:28;4;;;3;;
15504;SDS011;7854;52.184;5.942;2023-08-06T11:13:43;3;;;3;;
15504;SDS011;7854;52.184;5.942;2023-08-06T11:15:58;4;;;4;;
15504;SDS011;7854;52.184;5.942;2023-08-06T11:18:12;5;;;5;;
15504;SDS011;7854;52.184;5.942;2023-08-06T11:20:26;5;;;5;;
15504;SDS011;7854;52.184;5.942;2023-08-06T11:22:41;5;;;4;;
15504;SDS011;7854;52.184;5.942;2023-08-06T11:24:55;6;;;5;;
15504;SDS011;7854;52.184;5.942;2023-08-06T11:27:11;6;;;6;;
15504;SDS011;7854;52.184;5.942;2023-08-06T11:29:23;6;;;6;;
15504;SDS011;7854;52.184;5.942;2023-08-06T11:31:38;6;;;6;;
15504;SDS011;7854;52.184;5.942;2023-08-06T11:33:52;6;;;6;;
15504;SDS011;7854;52.184;5.942;2023-08-06T11:36:07;7;;;7;;
15504;SDS011;7854;52.184;5.942;2023-08-06T11:38:21;6;;;6;;
15504;SDS011;7854;52.184;5.942;2023-08-06T11:40:35;7;;;6;;
15504;SDS011;7854;52.184;5.942;2023-08-06T11:42:50;8;;;7;;
15504;SDS011;7854;52.184;5.942;2023-08-06T11:45:05;5;;;4;;
15504;SDS011;7854;52.184;5.942;2023-08-06T11:47:18;3;;;3;;
15504;SDS011;7854;52.184;5.942;2023-08-06T11:49:41;2;;;2;;
15504;SDS011;7854;52.184;5.942;2023-08-06T11:51:48;2;;;2;;
15504;SDS011;7854;52.184;5.942;2023-08-06T11:54:02;8;;;2;;
15504;SDS011;7854;52.184;5.942;2023-08-06T11:56:16;2;;;2;;
15504;SDS011;7854;52.184;5.942;2023-08-06T11:58:31;3;;;2;;
15504;SDS011;7854;52.184;5.942;2023-08-06T12:00:46;4;;;3;;
15504;SDS011;7854;52.184;5.942;2023-08-06T12:03:00;2;;;2;;
15504;SDS011;7854;52.184;5.942;2023-08-06T12:05:15;2;;;2;;
15504;SDS011;7854;52.184;5.942;2023-08-06T12:07:29;2;;;2;;
15504;SDS011;7854;52.184;5.942;2023-08-06T12:09:43;4;;;2;;
15504;SDS011;7854;52.184;5.942;2023-08-06T12:11:59;2;;;2;;
15504;SDS011;7854;52.184;5.942;2023-08-06T12:14:12;3;;;3;;
15504;SDS011;7854;52.184;5.942;2023-08-06T12:16:27;2;;;2;;
15504;SDS011;7854;52.184;5.942;2023-08-06T12:18:41;2;;;2;;
15504;SDS011;7854;52.184;5.942;2023-08-06T12:20:56;3;;;3;;
15504;SDS011;7854;52.184;5.942;2023-08-06T12:23:10;2;;;2;;
15504;SDS011;7854;52.184;5.942;2023-08-06T12:25:24;2;;;2;;
15504;SDS011;7854;52.184;5.942;2023-08-06T12:27:39;5;;;2;;
15504;SDS011;7854;52.184;5.942;2023-08-06T12:29:53;3;;;2;;
15504;SDS011;7854;52.184;5.942;2023-08-06T12:32:08;3;;;3;;
15504;SDS011;7854;52.184;5.942;2023-08-06T12:34:22;3;;;3;;
15504;SDS011;7854;52.184;5.942;2023-08-06T12:36:38;5;;;2;;
15504;SDS011;7854;52.184;5.942;2023-08-06T12:38:51;2;;;2;;
15504;SDS011;7854;52.184;5.942;2023-08-06T12:41:05;5;;;4;;
15504;SDS011;7854;52.184;5.942;2023-08-06T12:43:20;3;;;2;;
15504;SDS011;7854;52.184;5.942;2023-08-06T12:45:34;2;;;2;;
15504;SDS011;7854;52.184;5.942;2023-08-06T12:47:50;2;;;2;;
15504;SDS011;7854;52.184;5.942;2023-08-06T12:50:04;2;;;2;;
15504;SDS011;7854;52.184;5.942;2023-08-06T12:52:18;2;;;2;;
15504;SDS011;7854;52.184;5.942;2023-08-06T12:54:32;5;;;3;;
15504;SDS011;7854;52.184;5.942;2023-08-06T12:56:47;2;;;2;;
15504;SDS011;7854;52.184;5.942;2023-08-06T12:59:01;2;;;2;;
15504;SDS011;7854;52.184;5.942;2023-08-06T13:01:15;2;;;2;;
15504;SDS011;7854;52.184;5.942;2023-08-06T13:03:30;3;;;3;;
15504;SDS011;7854;52.184;5.942;2023-08-06T13:05:44;3;;;3;;
15504;SDS011;7854;52.184;5.942;2023-08-06T13:07:59;3;;;3;;
15504;SDS011;7854;52.184;5.942;2023-08-06T13:10:13;2;;;2;;
15504;SDS011;7854;52.184;5.942;2023-08-06T13:12:27;5;;;3;;
15504;SDS011;7854;52.184;5.942;2023-08-06T13:14:42;3;;;3;;
15504;SDS011;7854;52.184;5.942;2023-08-06T13:16:56;2;;;2;;
15504;SDS011;7854;52.184;5.942;2023-08-06T13:19:11;3;;;3;;
15504;SDS011;7854;52.184;5.942;2023-08-06T13:21:33;3;;;3;;
15504;SDS011;7854;52.184;5.942;2023-08-06T13:23:40;3;;;3;;
15504;SDS011;7854;52.184;5.942;2023-08-06T13:25:54;5;;;4;;
15504;SDS011;7854;52.184;5.942;2023-08-06T13:28:09;4;;;3;;
15504;SDS011;7854;52.184;5.942;2023-08-06T13:30:23;4;;;4;;
15504;SDS011;7854;52.184;5.942;2023-08-06T13:32:38;4;;;4;;
15504;SDS011;7854;52.184;5.942;2023-08-06T13:34:54;6;;;5;;
15504;SDS011;7854;52.184;5.942;2023-08-06T13:37:06;5;;;5;;
15504;SDS011;7854;52.184;5.942;2023-08-06T13:39:21;5;;;5;;
15504;SDS011;7854;52.184;5.942;2023-08-06T13:43:50;4;;;4;;
15504;SDS011;7854;52.184;5.942;2023-08-06T13:46:04;5;;;4;;
15504;SDS011;7854;52.184;5.942;2023-08-06T13:48:19;5;;;5;;
15504;SDS011;7854;52.184;5.942;2023-08-06T13:50:33;4;;;4;;
15504;SDS011;7854;52.184;5.942;2023-08-06T13:52:46;8;;;5;;
15504;SDS011;7854;52.184;5.942;2023-08-06T13:55:01;5;;;4;;
15504;SDS011;7854;52.184;5.942;2023-08-06T13:57:14;5;;;4;;
15504;SDS011;7854;52.184;5.942;2023-08-06T13:59:28;5;;;4;;
15504;SDS011;7854;52.184;5.942;2023-08-06T14:01:42;7;;;5;;
15504;SDS011;7854;52.184;5.942;2023-08-06T14:03:57;5;;;5;;
15504;SDS011;7854;52.184;5.942;2023-08-06T14:06:12;6;;;5;;
15504;SDS011;7854;52.184;5.942;2023-08-06T14:08:26;7;;;6;;
15504;SDS011;7854;52.184;5.942;2023-08-06T14:10:40;6;;;5;;
15504;SDS011;7854;52.184;5.942;2023-08-06T14:12:55;4;;;4;;
15504;SDS011;7854;52.184;5.942;2023-08-06T14:15:10;6;;;5;;
15504;SDS011;7854;52.184;5.942;2023-08-06T14:17:23;6;;;6;;
15504;SDS011;7854;52.184;5.942;2023-08-06T14:19:38;5;;;5;;
15504;SDS011;7854;52.184;5.942;2023-08-06T14:21:53;8;;;7;;
15504;SDS011;7854;52.184;5.942;2023-08-06T14:24:07;10;;;7;;
15504;SDS011;7854;52.184;5.942;2023-08-06T14:26:22;7;;;7;;
15504;SDS011;7854;52.184;5.942;2023-08-06T14:28:36;7;;;7;;
15504;SDS011;7854;52.184;5.942;2023-08-06T14:30:50;14;;;8;;
15504;SDS011;7854;52.184;5.942;2023-08-06T14:33:05;7;;;6;;
15504;SDS011;7854;52.184;5.942;2023-08-06T14:35:19;9;;;8;;
15504;SDS011;7854;52.184;5.942;2023-08-06T14:37:33;10;;;9;;
15504;SDS011;7854;52.184;5.942;2023-08-06T14:39:49;7;;;7;;
15504;SDS011;7854;52.184;5.942;2023-08-06T14:42:03;8;;;8;;
15504;SDS011;7854;52.184;5.942;2023-08-06T14:44:16;8;;;7;;
15504;SDS011;7854;52.184;5.942;2023-08-06T14:46:30;11;;;8;;
15504;SDS011;7854;52.184;5.942;2023-08-06T14:48:45;9;;;9;;
15504;SDS011;7854;52.184;5.942;2023-08-06T14:51:00;8;;;8;;
15504;SDS011;7854;52.184;5.942;2023-08-06T14:53:14;9;;;8;;
15504;SDS011;7854;52.184;5.942;2023-08-06T14:55:28;8;;;7;;
15504;SDS011;7854;52.184;5.942;2023-08-06T14:57:43;17;;;7;;
15504;SDS011;7854;52.184;5.942;2023-08-06T14:59:57;9;;;8;;
15504;SDS011;7854;52.184;5.942;2023-08-06T15:02:12;12;;;8;;
15504;SDS011;7854;52.184;5.942;2023-08-06T15:04:26;8;;;7;;
15504;SDS011;7854;52.184;5.942;2023-08-06T15:06:40;7;;;6;;
15504;SDS011;7854;52.184;5.942;2023-08-06T15:08:55;7;;;7;;
15504;SDS011;7854;52.184;5.942;2023-08-06T15:11:09;9;;;8;;